sensor_id;sensor_type;location;lat;lon;timestamp;P1;durP1;ratioP1;P2;durP2;ratioP2
54408;SDS011;40315;48.620;9.828;2022-12-18T00:01:22;30.50;;;13.57;;
54408;SDS011;40315;48.620;9.828;2022-12-18T00:03:51;30.50;;;12.97;;
54408;SDS011;40315;48.620;9.828;2022-12-18T00:06:22;31.27;;;11.63;;
54408;SDS011;40315;48.620;9.828;2022-12-18T00:08:54;34.00;;;13.63;;
54408;SDS011;40315;48.620;9.828;2022-12-18T00:11:26;25.30;;;11.60;;
54408;SDS011;40315;48.620;9.828;2022-12-18T00:13:55;31.83;;;13.93;;
54408;SDS011;40315;48.620;9.828;2022-12-18T00:16:25;30.83;;;12.17;;
54408;SDS011;40315;48.620;9.828;2022-12-18T00:18:54;27.27;;;12.17;;
54408;SDS011;40315;48.620;9.828;2022-12-18T00:21:25;28.97;;;11.77;;
54408;SDS011;40315;48.620;9.828;2022-12-18T00:23:53;29.53;;;12.17;;
54408;SDS011;40315;48.620;9.828;2022-12-18T00:26:21;27.10;;;11.77;;
54408;SDS011;40315;48.620;9.828;2022-12-18T00:28:57;30.13;;;12.60;;
54408;SDS011;40315;48.620;9.828;2022-12-18T00:31:26;34.17;;;13.70;;
54408;SDS011;40315;48.620;9.828;2022-12-18T00:33:53;27.20;;;11.53;;
54408;SDS011;40315;48.620;9.828;2022-12-18T00:36:22;31.50;;;12.97;;
54408;SDS011;40315;48.620;9.828;2022-12-18T00:38:53;32.13;;;13.13;;
54408;SDS011;40315;48.620;9.828;2022-12-18T00:41:21;26.80;;;11.80;;
54408;SDS011;40315;48.620;9.828;2022-12-18T00:44:03;30.67;;;11.87;;
54408;SDS011;40315;48.620;9.828;2022-12-18T00:46:35;32.93;;;13.80;;
54408;SDS011;40315;48.620;9.828;2022-12-18T00:49:02;28.97;;;11.53;;
54408;SDS011;40315;48.620;9.828;2022-12-18T00:51:29;31.53;;;12.77;;
54408;SDS011;40315;48.620;9.828;2022-12-18T00:53:56;35.77;;;15.43;;
54408;SDS011;40315;48.620;9.828;2022-12-18T00:56:23;26.23;;;13.30;;
54408;SDS011;40315;48.620;9.828;2022-12-18T00:58:51;26.93;;;12.30;;
54408;SDS011;40315;48.620;9.828;2022-12-18T01:01:18;22.93;;;10.47;;
54408;SDS011;40315;48.620;9.828;2022-12-18T01:03:47;32.80;;;13.70;;
54408;SDS011;40315;48.620;9.828;2022-12-18T01:06:15;34.37;;;12.87;;
54408;SDS011;40315;48.620;9.828;2022-12-18T01:08:43;30.27;;;12.17;;
54408;SDS011;40315;48.620;9.828;2022-12-18T01:11:12;30.63;;;12.97;;
54408;SDS011;40315;48.620;9.828;2022-12-18T01:13:41;30.13;;;12.23;;
54408;SDS011;40315;48.620;9.828;2022-12-18T01:16:11;33.93;;;15.17;;
54408;SDS011;40315;48.620;9.828;2022-12-18T01:18:38;37.17;;;12.80;;
54408;SDS011;40315;48.620;9.828;2022-12-18T01:21:07;33.77;;;14.13;;
54408;SDS011;40315;48.620;9.828;2022-12-18T01:23:36;29.80;;;13.20;;
54408;SDS011;40315;48.620;9.828;2022-12-18T01:26:04;35.17;;;12.53;;
54408;SDS011;40315;48.620;9.828;2022-12-18T01:28:34;38.20;;;15.07;;
54408;SDS011;40315;48.620;9.828;2022-12-18T01:31:13;36.63;;;13.70;;
54408;SDS011;40315;48.620;9.828;2022-12-18T01:33:42;32.60;;;13.90;;
54408;SDS011;40315;48.620;9.828;2022-12-18T01:36:15;33.53;;;12.83;;
54408;SDS011;40315;48.620;9.828;2022-12-18T01:38:43;34.50;;;13.13;;
54408;SDS011;40315;48.620;9.828;2022-12-18T01:41:11;37.67;;;15.10;;
54408;SDS011;40315;48.620;9.828;2022-12-18T01:47:15;36.07;;;13.53;;
54408;SDS011;40315;48.620;9.828;2022-12-18T01:49:49;35.93;;;13.00;;
54408;SDS011;40315;48.620;9.828;2022-12-18T01:52:20;32.67;;;13.67;;
54408;SDS011;40315;48.620;9.828;2022-12-18T01:54:50;32.27;;;13.67;;
54408;SDS011;40315;48.620;9.828;2022-12-18T01:57:18;33.03;;;14.10;;
54408;SDS011;40315;48.620;9.828;2022-12-18T01:59:45;38.37;;;15.40;;
54408;SDS011;40315;48.620;9.828;2022-12-18T02:02:15;39.50;;;16.47;;
54408;SDS011;40315;48.620;9.828;2022-12-18T02:04:43;28.60;;;12.43;;
54408;SDS011;40315;48.620;9.828;2022-12-18T02:07:10;36.27;;;13.30;;
54408;SDS011;40315;48.620;9.828;2022-12-18T02:09:48;37.87;;;13.20;;
54408;SDS011;40315;48.620;9.828;2022-12-18T02:12:21;34.30;;;13.80;;
54408;SDS011;40315;48.620;9.828;2022-12-18T02:14:52;33.30;;;13.80;;
54408;SDS011;40315;48.620;9.828;2022-12-18T02:17:26;38.87;;;14.60;;
54408;SDS011;40315;48.620;9.828;2022-12-18T02:20:02;34.93;;;13.70;;
54408;SDS011;40315;48.620;9.828;2022-12-18T02:22:41;44.57;;;15.90;;
54408;SDS011;40315;48.620;9.828;2022-12-18T02:25:23;36.33;;;13.13;;
54408;SDS011;40315;48.620;9.828;2022-12-18T02:28:03;37.70;;;13.50;;
54408;SDS011;40315;48.620;9.828;2022-12-18T02:30:33;40.03;;;14.50;;
54408;SDS011;40315;48.620;9.828;2022-12-18T02:33:04;42.80;;;13.90;;
54408;SDS011;40315;48.620;9.828;2022-12-18T02:35:33;41.60;;;14.57;;
54408;SDS011;40315;48.620;9.828;2022-12-18T02:38:04;39.50;;;14.50;;
54408;SDS011;40315;48.620;9.828;2022-12-18T02:40:34;41.33;;;14.57;;
54408;SDS011;40315;48.620;9.828;2022-12-18T02:43:08;47.27;;;15.70;;
54408;SDS011;40315;48.620;9.828;2022-12-18T02:45:35;33.73;;;12.47;;
54408;SDS011;40315;48.620;9.828;2022-12-18T02:48:15;33.30;;;14.03;;
54408;SDS011;40315;48.620;9.828;2022-12-18T02:50:44;39.27;;;14.87;;
54408;SDS011;40315;48.620;9.828;2022-12-18T02:53:20;41.50;;;13.87;;
54408;SDS011;40315;48.620;9.828;2022-12-18T02:55:56;45.97;;;15.20;;
54408;SDS011;40315;48.620;9.828;2022-12-18T02:58:32;44.17;;;14.67;;
54408;SDS011;40315;48.620;9.828;2022-12-18T03:01:15;41.30;;;14.83;;
54408;SDS011;40315;48.620;9.828;2022-12-18T03:03:51;35.77;;;13.83;;
54408;SDS011;40315;48.620;9.828;2022-12-18T03:06:24;42.60;;;13.43;;
54408;SDS011;40315;48.620;9.828;2022-12-18T03:08:58;36.20;;;13.23;;
54408;SDS011;40315;48.620;9.828;2022-12-18T03:11:29;38.10;;;14.43;;
54408;SDS011;40315;48.620;9.828;2022-12-18T03:14:16;31.43;;;13.33;;
54408;SDS011;40315;48.620;9.828;2022-12-18T03:16:50;39.63;;;14.53;;
54408;SDS011;40315;48.620;9.828;2022-12-18T03:19:21;39.90;;;14.80;;
54408;SDS011;40315;48.620;9.828;2022-12-18T03:21:57;40.10;;;13.67;;
54408;SDS011;40315;48.620;9.828;2022-12-18T03:24:32;39.20;;;12.93;;
54408;SDS011;40315;48.620;9.828;2022-12-18T03:27:05;42.97;;;14.50;;
54408;SDS011;40315;48.620;9.828;2022-12-18T03:29:38;39.57;;;14.37;;
54408;SDS011;40315;48.620;9.828;2022-12-18T03:32:14;35.03;;;13.40;;
54408;SDS011;40315;48.620;9.828;2022-12-18T03:34:46;49.67;;;15.50;;
54408;SDS011;40315;48.620;9.828;2022-12-18T03:37:17;42.23;;;14.30;;
54408;SDS011;40315;48.620;9.828;2022-12-18T03:39:44;45.10;;;15.77;;
54408;SDS011;40315;48.620;9.828;2022-12-18T03:42:15;38.23;;;14.57;;
54408;SDS011;40315;48.620;9.828;2022-12-18T03:44:52;45.40;;;15.83;;
54408;SDS011;40315;48.620;9.828;2022-12-18T03:47:28;42.10;;;13.50;;
54408;SDS011;40315;48.620;9.828;2022-12-18T03:50:07;40.63;;;16.23;;
54408;SDS011;40315;48.620;9.828;2022-12-18T03:52:45;41.70;;;15.13;;
54408;SDS011;40315;48.620;9.828;2022-12-18T03:55:16;40.80;;;14.30;;
54408;SDS011;40315;48.620;9.828;2022-12-18T03:57:50;39.50;;;14.57;;
54408;SDS011;40315;48.620;9.828;2022-12-18T04:00:24;48.67;;;14.40;;
54408;SDS011;40315;48.620;9.828;2022-12-18T04:03:03;47.37;;;13.47;;
54408;SDS011;40315;48.620;9.828;2022-12-18T04:05:39;37.27;;;13.80;;
54408;SDS011;40315;48.620;9.828;2022-12-18T04:08:08;39.70;;;14.50;;
54408;SDS011;40315;48.620;9.828;2022-12-18T04:10:40;43.93;;;15.73;;
54408;SDS011;40315;48.620;9.828;2022-12-18T04:13:10;44.30;;;15.07;;
54408;SDS011;40315;48.620;9.828;2022-12-18T04:15:39;48.67;;;16.43;;
54408;SDS011;40315;48.620;9.828;2022-12-18T04:18:11;43.67;;;15.30;;
54408;SDS011;40315;48.620;9.828;2022-12-18T04:20:42;48.30;;;15.23;;
54408;SDS011;40315;48.620;9.828;2022-12-18T04:23:10;42.00;;;14.90;;
54408;SDS011;40315;48.620;9.828;2022-12-18T04:25:38;39.07;;;16.07;;
54408;SDS011;40315;48.620;9.828;2022-12-18T04:28:10;43.00;;;14.97;;
54408;SDS011;40315;48.620;9.828;2022-12-18T04:30:37;40.83;;;14.80;;
54408;SDS011;40315;48.620;9.828;2022-12-18T04:33:09;43.30;;;14.10;;
54408;SDS011;40315;48.620;9.828;2022-12-18T04:35:38;41.77;;;13.97;;
54408;SDS011;40315;48.620;9.828;2022-12-18T04:38:06;32.80;;;12.83;;
54408;SDS011;40315;48.620;9.828;2022-12-18T04:40:34;42.83;;;15.30;;
54408;SDS011;40315;48.620;9.828;2022-12-18T04:43:07;42.13;;;13.97;;
54408;SDS011;40315;48.620;9.828;2022-12-18T04:45:34;42.80;;;15.20;;
54408;SDS011;40315;48.620;9.828;2022-12-18T04:48:02;42.97;;;13.77;;
54408;SDS011;40315;48.620;9.828;2022-12-18T04:50:33;37.77;;;14.37;;
54408;SDS011;40315;48.620;9.828;2022-12-18T04:53:01;42.20;;;14.40;;
54408;SDS011;40315;48.620;9.828;2022-12-18T04:55:27;50.50;;;15.83;;
54408;SDS011;40315;48.620;9.828;2022-12-18T04:57:57;47.50;;;14.20;;
54408;SDS011;40315;48.620;9.828;2022-12-18T05:00:25;44.17;;;14.60;;
54408;SDS011;40315;48.620;9.828;2022-12-18T05:02:52;42.37;;;15.07;;
54408;SDS011;40315;48.620;9.828;2022-12-18T05:05:22;47.07;;;16.93;;
54408;SDS011;40315;48.620;9.828;2022-12-18T05:07:50;35.63;;;13.90;;
54408;SDS011;40315;48.620;9.828;2022-12-18T05:10:17;44.60;;;15.83;;
54408;SDS011;40315;48.620;9.828;2022-12-18T05:12:44;49.60;;;16.40;;
54408;SDS011;40315;48.620;9.828;2022-12-18T05:15:27;38.07;;;13.73;;
54408;SDS011;40315;48.620;9.828;2022-12-18T05:17:55;46.73;;;17.23;;
54408;SDS011;40315;48.620;9.828;2022-12-18T05:20:23;45.90;;;14.97;;
54408;SDS011;40315;48.620;9.828;2022-12-18T05:22:51;41.53;;;15.47;;
54408;SDS011;40315;48.620;9.828;2022-12-18T05:25:19;46.13;;;16.97;;
54408;SDS011;40315;48.620;9.828;2022-12-18T05:27:47;49.30;;;18.47;;
54408;SDS011;40315;48.620;9.828;2022-12-18T05:30:14;48.10;;;18.00;;
54408;SDS011;40315;48.620;9.828;2022-12-18T05:32:42;42.47;;;16.47;;
54408;SDS011;40315;48.620;9.828;2022-12-18T05:35:09;46.20;;;15.73;;
54408;SDS011;40315;48.620;9.828;2022-12-18T05:37:37;50.73;;;17.10;;
54408;SDS011;40315;48.620;9.828;2022-12-18T05:40:06;41.57;;;15.03;;
54408;SDS011;40315;48.620;9.828;2022-12-18T05:42:34;49.37;;;14.97;;
54408;SDS011;40315;48.620;9.828;2022-12-18T05:45:01;44.93;;;14.57;;
54408;SDS011;40315;48.620;9.828;2022-12-18T05:47:28;46.63;;;15.37;;
54408;SDS011;40315;48.620;9.828;2022-12-18T05:49:55;38.23;;;14.40;;
54408;SDS011;40315;48.620;9.828;2022-12-18T05:52:22;49.33;;;15.83;;
54408;SDS011;40315;48.620;9.828;2022-12-18T05:54:49;53.53;;;18.17;;
54408;SDS011;40315;48.620;9.828;2022-12-18T05:57:20;40.17;;;14.30;;
54408;SDS011;40315;48.620;9.828;2022-12-18T05:59:47;46.10;;;16.70;;
54408;SDS011;40315;48.620;9.828;2022-12-18T06:02:14;40.93;;;14.13;;
54408;SDS011;40315;48.620;9.828;2022-12-18T06:04:41;38.03;;;14.90;;
54408;SDS011;40315;48.620;9.828;2022-12-18T06:07:08;43.30;;;14.73;;
54408;SDS011;40315;48.620;9.828;2022-12-18T06:09:35;43.60;;;15.80;;
54408;SDS011;40315;48.620;9.828;2022-12-18T06:12:05;40.10;;;14.27;;
54408;SDS011;40315;48.620;9.828;2022-12-18T06:14:34;42.53;;;13.27;;
54408;SDS011;40315;48.620;9.828;2022-12-18T06:17:01;38.73;;;15.10;;
54408;SDS011;40315;48.620;9.828;2022-12-18T06:19:28;42.57;;;15.73;;
54408;SDS011;40315;48.620;9.828;2022-12-18T06:21:55;49.43;;;16.37;;
54408;SDS011;40315;48.620;9.828;2022-12-18T06:24:26;45.37;;;15.50;;
54408;SDS011;40315;48.620;9.828;2022-12-18T06:26:53;36.20;;;14.43;;
54408;SDS011;40315;48.620;9.828;2022-12-18T06:29:20;46.63;;;14.83;;
54408;SDS011;40315;48.620;9.828;2022-12-18T06:31:49;50.43;;;16.67;;
54408;SDS011;40315;48.620;9.828;2022-12-18T06:34:16;59.50;;;17.37;;
54408;SDS011;40315;48.620;9.828;2022-12-18T06:36:43;55.00;;;18.93;;
54408;SDS011;40315;48.620;9.828;2022-12-18T06:39:10;51.57;;;15.40;;
54408;SDS011;40315;48.620;9.828;2022-12-18T06:41:37;52.30;;;17.83;;
54408;SDS011;40315;48.620;9.828;2022-12-18T06:44:04;61.20;;;17.57;;
54408;SDS011;40315;48.620;9.828;2022-12-18T06:46:31;50.60;;;17.13;;
54408;SDS011;40315;48.620;9.828;2022-12-18T06:49:00;50.20;;;17.13;;
54408;SDS011;40315;48.620;9.828;2022-12-18T06:51:27;51.33;;;17.17;;
54408;SDS011;40315;48.620;9.828;2022-12-18T06:53:54;53.37;;;18.10;;
54408;SDS011;40315;48.620;9.828;2022-12-18T06:56:23;57.20;;;17.70;;
54408;SDS011;40315;48.620;9.828;2022-12-18T06:58:53;57.00;;;16.80;;
54408;SDS011;40315;48.620;9.828;2022-12-18T07:01:21;59.77;;;18.77;;
54408;SDS011;40315;48.620;9.828;2022-12-18T07:03:51;46.17;;;15.63;;
54408;SDS011;40315;48.620;9.828;2022-12-18T07:06:24;61.93;;;19.30;;
54408;SDS011;40315;48.620;9.828;2022-12-18T07:08:53;64.40;;;17.57;;
54408;SDS011;40315;48.620;9.828;2022-12-18T07:11:20;50.10;;;16.03;;
54408;SDS011;40315;48.620;9.828;2022-12-18T07:13:48;53.57;;;19.00;;
54408;SDS011;40315;48.620;9.828;2022-12-18T07:16:16;50.13;;;15.87;;
54408;SDS011;40315;48.620;9.828;2022-12-18T07:18:44;48.07;;;16.57;;
54408;SDS011;40315;48.620;9.828;2022-12-18T07:21:12;60.50;;;17.87;;
54408;SDS011;40315;48.620;9.828;2022-12-18T07:23:41;52.73;;;16.50;;
54408;SDS011;40315;48.620;9.828;2022-12-18T07:26:09;60.00;;;19.30;;
54408;SDS011;40315;48.620;9.828;2022-12-18T07:28:38;58.40;;;17.33;;
54408;SDS011;40315;48.620;9.828;2022-12-18T07:31:06;55.47;;;18.07;;
54408;SDS011;40315;48.620;9.828;2022-12-18T07:33:35;54.70;;;15.23;;
54408;SDS011;40315;48.620;9.828;2022-12-18T07:36:02;57.47;;;17.47;;
54408;SDS011;40315;48.620;9.828;2022-12-18T07:38:34;58.17;;;18.70;;
54408;SDS011;40315;48.620;9.828;2022-12-18T07:41:06;47.80;;;16.17;;
54408;SDS011;40315;48.620;9.828;2022-12-18T07:43:34;52.53;;;17.30;;
54408;SDS011;40315;48.620;9.828;2022-12-18T07:46:02;47.20;;;15.23;;
54408;SDS011;40315;48.620;9.828;2022-12-18T07:48:30;61.17;;;18.37;;
54408;SDS011;40315;48.620;9.828;2022-12-18T07:50:57;62.03;;;17.63;;
54408;SDS011;40315;48.620;9.828;2022-12-18T07:53:25;54.73;;;18.53;;
54408;SDS011;40315;48.620;9.828;2022-12-18T07:55:54;54.80;;;17.67;;
54408;SDS011;40315;48.620;9.828;2022-12-18T07:58:23;47.43;;;16.17;;
54408;SDS011;40315;48.620;9.828;2022-12-18T08:00:51;61.70;;;20.50;;
54408;SDS011;40315;48.620;9.828;2022-12-18T08:03:18;54.77;;;17.70;;
54408;SDS011;40315;48.620;9.828;2022-12-18T08:05:48;63.27;;;19.80;;
54408;SDS011;40315;48.620;9.828;2022-12-18T08:08:15;59.13;;;19.53;;
54408;SDS011;40315;48.620;9.828;2022-12-18T08:10:42;61.23;;;19.87;;
54408;SDS011;40315;48.620;9.828;2022-12-18T08:13:09;52.50;;;18.97;;
54408;SDS011;40315;48.620;9.828;2022-12-18T08:15:39;50.93;;;18.13;;
54408;SDS011;40315;48.620;9.828;2022-12-18T08:18:06;58.20;;;18.50;;
54408;SDS011;40315;48.620;9.828;2022-12-18T08:20:36;59.23;;;17.87;;
54408;SDS011;40315;48.620;9.828;2022-12-18T08:23:03;54.43;;;16.97;;
54408;SDS011;40315;48.620;9.828;2022-12-18T08:25:30;53.30;;;18.60;;
54408;SDS011;40315;48.620;9.828;2022-12-18T08:27:57;54.07;;;16.83;;
54408;SDS011;40315;48.620;9.828;2022-12-18T08:30:24;51.17;;;16.73;;
54408;SDS011;40315;48.620;9.828;2022-12-18T08:32:52;48.20;;;17.70;;
54408;SDS011;40315;48.620;9.828;2022-12-18T08:35:22;47.37;;;16.07;;
54408;SDS011;40315;48.620;9.828;2022-12-18T08:37:49;53.33;;;17.43;;
54408;SDS011;40315;48.620;9.828;2022-12-18T08:40:18;50.77;;;17.97;;
54408;SDS011;40315;48.620;9.828;2022-12-18T08:42:47;51.53;;;17.23;;
54408;SDS011;40315;48.620;9.828;2022-12-18T08:45:32;50.40;;;17.73;;
54408;SDS011;40315;48.620;9.828;2022-12-18T08:48:07;53.30;;;16.43;;
54408;SDS011;40315;48.620;9.828;2022-12-18T08:50:34;49.07;;;16.50;;
54408;SDS011;40315;48.620;9.828;2022-12-18T08:53:01;44.10;;;16.73;;
54408;SDS011;40315;48.620;9.828;2022-12-18T08:55:28;42.83;;;15.17;;
54408;SDS011;40315;48.620;9.828;2022-12-18T08:57:55;50.00;;;16.27;;
54408;SDS011;40315;48.620;9.828;2022-12-18T09:00:25;36.17;;;13.97;;
54408;SDS011;40315;48.620;9.828;2022-12-18T09:02:54;54.60;;;18.30;;
54408;SDS011;40315;48.620;9.828;2022-12-18T09:05:22;50.30;;;17.00;;
54408;SDS011;40315;48.620;9.828;2022-12-18T09:07:49;53.73;;;18.33;;
54408;SDS011;40315;48.620;9.828;2022-12-18T09:10:16;50.97;;;16.73;;
54408;SDS011;40315;48.620;9.828;2022-12-18T09:12:43;52.17;;;16.00;;
54408;SDS011;40315;48.620;9.828;2022-12-18T09:15:10;46.67;;;15.03;;
54408;SDS011;40315;48.620;9.828;2022-12-18T09:17:37;43.10;;;16.13;;
54408;SDS011;40315;48.620;9.828;2022-12-18T09:20:05;51.17;;;17.83;;
54408;SDS011;40315;48.620;9.828;2022-12-18T09:22:36;47.03;;;15.17;;
54408;SDS011;40315;48.620;9.828;2022-12-18T09:25:03;48.00;;;16.50;;
54408;SDS011;40315;48.620;9.828;2022-12-18T09:27:32;48.33;;;16.13;;
54408;SDS011;40315;48.620;9.828;2022-12-18T09:29:59;44.50;;;16.07;;
54408;SDS011;40315;48.620;9.828;2022-12-18T09:32:26;47.50;;;16.30;;
54408;SDS011;40315;48.620;9.828;2022-12-18T09:34:54;50.03;;;16.23;;
54408;SDS011;40315;48.620;9.828;2022-12-18T09:37:21;47.47;;;16.53;;
54408;SDS011;40315;48.620;9.828;2022-12-18T09:39:51;44.53;;;14.53;;
54408;SDS011;40315;48.620;9.828;2022-12-18T09:42:21;52.17;;;17.43;;
54408;SDS011;40315;48.620;9.828;2022-12-18T09:44:49;44.60;;;17.57;;
54408;SDS011;40315;48.620;9.828;2022-12-18T09:47:22;40.33;;;15.83;;
54408;SDS011;40315;48.620;9.828;2022-12-18T09:49:52;45.37;;;17.47;;
54408;SDS011;40315;48.620;9.828;2022-12-18T09:52:24;46.40;;;17.70;;
54408;SDS011;40315;48.620;9.828;2022-12-18T09:54:56;50.93;;;15.80;;
54408;SDS011;40315;48.620;9.828;2022-12-18T09:57:28;41.67;;;15.17;;
54408;SDS011;40315;48.620;9.828;2022-12-18T10:00:02;45.90;;;15.80;;
54408;SDS011;40315;48.620;9.828;2022-12-18T10:02:36;52.93;;;17.77;;
54408;SDS011;40315;48.620;9.828;2022-12-18T10:05:07;48.27;;;17.50;;
54408;SDS011;40315;48.620;9.828;2022-12-18T10:07:43;44.47;;;15.97;;
54408;SDS011;40315;48.620;9.828;2022-12-18T10:10:29;46.30;;;16.57;;
54408;SDS011;40315;48.620;9.828;2022-12-18T10:13:04;49.50;;;18.27;;
54408;SDS011;40315;48.620;9.828;2022-12-18T10:15:41;44.23;;;17.00;;
54408;SDS011;40315;48.620;9.828;2022-12-18T10:18:19;48.97;;;18.17;;
54408;SDS011;40315;48.620;9.828;2022-12-18T10:20:56;41.33;;;16.43;;
54408;SDS011;40315;48.620;9.828;2022-12-18T10:23:29;43.20;;;16.63;;
54408;SDS011;40315;48.620;9.828;2022-12-18T10:26:10;44.63;;;13.97;;
54408;SDS011;40315;48.620;9.828;2022-12-18T10:28:40;42.77;;;14.90;;
54408;SDS011;40315;48.620;9.828;2022-12-18T10:31:07;45.17;;;16.67;;
54408;SDS011;40315;48.620;9.828;2022-12-18T10:33:44;44.70;;;15.83;;
54408;SDS011;40315;48.620;9.828;2022-12-18T10:36:11;39.07;;;15.33;;
54408;SDS011;40315;48.620;9.828;2022-12-18T10:38:39;47.50;;;16.57;;
54408;SDS011;40315;48.620;9.828;2022-12-18T10:41:22;47.53;;;16.23;;
54408;SDS011;40315;48.620;9.828;2022-12-18T10:44:10;40.37;;;15.00;;
54408;SDS011;40315;48.620;9.828;2022-12-18T10:46:38;39.50;;;14.60;;
54408;SDS011;40315;48.620;9.828;2022-12-18T10:49:07;36.70;;;13.37;;
54408;SDS011;40315;48.620;9.828;2022-12-18T10:51:45;39.70;;;16.87;;
54408;SDS011;40315;48.620;9.828;2022-12-18T10:54:14;41.40;;;15.23;;
54408;SDS011;40315;48.620;9.828;2022-12-18T10:56:44;37.47;;;15.13;;
54408;SDS011;40315;48.620;9.828;2022-12-18T10:59:13;38.13;;;15.23;;
54408;SDS011;40315;48.620;9.828;2022-12-18T11:01:48;37.83;;;14.23;;
54408;SDS011;40315;48.620;9.828;2022-12-18T11:04:18;41.40;;;15.33;;
54408;SDS011;40315;48.620;9.828;2022-12-18T11:06:54;36.57;;;15.57;;
54408;SDS011;40315;48.620;9.828;2022-12-18T11:09:26;37.57;;;14.93;;
54408;SDS011;40315;48.620;9.828;2022-12-18T11:11:56;38.87;;;15.03;;
54408;SDS011;40315;48.620;9.828;2022-12-18T11:14:26;39.93;;;14.60;;
54408;SDS011;40315;48.620;9.828;2022-12-18T11:16:57;39.50;;;15.07;;
54408;SDS011;40315;48.620;9.828;2022-12-18T11:19:32;39.13;;;14.50;;
54408;SDS011;40315;48.620;9.828;2022-12-18T11:22:01;40.63;;;16.53;;
54408;SDS011;40315;48.620;9.828;2022-12-18T11:24:31;33.73;;;14.27;;
54408;SDS011;40315;48.620;9.828;2022-12-18T11:27:01;33.73;;;13.33;;
54408;SDS011;40315;48.620;9.828;2022-12-18T11:29:34;39.00;;;16.23;;
54408;SDS011;40315;48.620;9.828;2022-12-18T11:35:03;37.30;;;13.73;;
54408;SDS011;40315;48.620;9.828;2022-12-18T11:37:39;43.63;;;16.93;;
54408;SDS011;40315;48.620;9.828;2022-12-18T11:40:10;39.37;;;17.07;;
54408;SDS011;40315;48.620;9.828;2022-12-18T11:42:44;35.73;;;14.23;;
54408;SDS011;40315;48.620;9.828;2022-12-18T11:45:28;39.40;;;16.20;;
54408;SDS011;40315;48.620;9.828;2022-12-18T11:47:58;43.33;;;15.43;;
54408;SDS011;40315;48.620;9.828;2022-12-18T11:50:32;44.60;;;16.37;;
54408;SDS011;40315;48.620;9.828;2022-12-18T11:53:09;46.30;;;17.37;;
54408;SDS011;40315;48.620;9.828;2022-12-18T11:55:41;45.87;;;16.47;;
54408;SDS011;40315;48.620;9.828;2022-12-18T11:58:26;38.20;;;16.33;;
54408;SDS011;40315;48.620;9.828;2022-12-18T12:01:09;38.13;;;14.47;;
54408;SDS011;40315;48.620;9.828;2022-12-18T12:04:00;36.67;;;14.77;;
54408;SDS011;40315;48.620;9.828;2022-12-18T12:06:45;41.70;;;17.70;;
54408;SDS011;40315;48.620;9.828;2022-12-18T12:09:21;39.97;;;16.07;;
54408;SDS011;40315;48.620;9.828;2022-12-18T12:11:58;43.60;;;16.73;;
54408;SDS011;40315;48.620;9.828;2022-12-18T12:14:42;34.53;;;14.50;;
54408;SDS011;40315;48.620;9.828;2022-12-18T12:17:20;46.10;;;15.87;;
54408;SDS011;40315;48.620;9.828;2022-12-18T12:19:59;40.60;;;16.10;;
54408;SDS011;40315;48.620;9.828;2022-12-18T12:22:36;41.93;;;17.60;;
54408;SDS011;40315;48.620;9.828;2022-12-18T12:25:14;38.77;;;16.13;;
54408;SDS011;40315;48.620;9.828;2022-12-18T12:27:49;38.93;;;15.30;;
54408;SDS011;40315;48.620;9.828;2022-12-18T12:30:27;42.30;;;16.40;;
54408;SDS011;40315;48.620;9.828;2022-12-18T12:33:08;38.43;;;16.07;;
54408;SDS011;40315;48.620;9.828;2022-12-18T12:35:49;38.63;;;15.20;;
54408;SDS011;40315;48.620;9.828;2022-12-18T12:38:20;33.93;;;16.10;;
54408;SDS011;40315;48.620;9.828;2022-12-18T12:40:51;44.83;;;16.10;;
54408;SDS011;40315;48.620;9.828;2022-12-18T12:43:28;44.27;;;17.07;;
54408;SDS011;40315;48.620;9.828;2022-12-18T12:46:04;43.87;;;16.90;;
54408;SDS011;40315;48.620;9.828;2022-12-18T12:48:35;40.20;;;15.73;;
54408;SDS011;40315;48.620;9.828;2022-12-18T12:51:12;41.57;;;16.23;;
54408;SDS011;40315;48.620;9.828;2022-12-18T12:53:43;43.40;;;18.13;;
54408;SDS011;40315;48.620;9.828;2022-12-18T12:56:15;44.30;;;15.97;;
54408;SDS011;40315;48.620;9.828;2022-12-18T12:58:50;36.23;;;15.80;;
54408;SDS011;40315;48.620;9.828;2022-12-18T13:01:31;44.77;;;16.63;;
54408;SDS011;40315;48.620;9.828;2022-12-18T13:04:07;40.50;;;15.77;;
54408;SDS011;40315;48.620;9.828;2022-12-18T13:06:43;41.27;;;17.07;;
54408;SDS011;40315;48.620;9.828;2022-12-18T13:09:16;40.87;;;15.27;;
54408;SDS011;40315;48.620;9.828;2022-12-18T13:11:44;38.77;;;17.03;;
54408;SDS011;40315;48.620;9.828;2022-12-18T13:14:31;44.13;;;17.30;;
54408;SDS011;40315;48.620;9.828;2022-12-18T13:17:15;36.53;;;14.47;;
54408;SDS011;40315;48.620;9.828;2022-12-18T13:20:06;38.30;;;15.37;;
54408;SDS011;40315;48.620;9.828;2022-12-18T13:22:40;40.13;;;15.63;;
54408;SDS011;40315;48.620;9.828;2022-12-18T13:25:32;36.07;;;14.50;;
54408;SDS011;40315;48.620;9.828;2022-12-18T13:28:03;34.37;;;13.43;;
54408;SDS011;40315;48.620;9.828;2022-12-18T13:30:46;34.67;;;14.53;;
54408;SDS011;40315;48.620;9.828;2022-12-18T13:33:34;35.73;;;16.13;;
54408;SDS011;40315;48.620;9.828;2022-12-18T13:36:15;32.00;;;14.47;;
54408;SDS011;40315;48.620;9.828;2022-12-18T13:38:43;39.93;;;16.30;;
54408;SDS011;40315;48.620;9.828;2022-12-18T13:41:21;35.27;;;14.07;;
54408;SDS011;40315;48.620;9.828;2022-12-18T13:43:50;38.73;;;16.57;;
54408;SDS011;40315;48.620;9.828;2022-12-18T13:46:19;35.87;;;14.17;;
54408;SDS011;40315;48.620;9.828;2022-12-18T13:48:51;36.13;;;15.30;;
54408;SDS011;40315;48.620;9.828;2022-12-18T13:51:21;36.17;;;16.10;;
54408;SDS011;40315;48.620;9.828;2022-12-18T13:53:53;34.10;;;14.30;;
54408;SDS011;40315;48.620;9.828;2022-12-18T13:56:24;41.17;;;15.70;;
54408;SDS011;40315;48.620;9.828;2022-12-18T13:59:03;33.53;;;13.07;;
54408;SDS011;40315;48.620;9.828;2022-12-18T14:01:41;34.27;;;13.10;;
54408;SDS011;40315;48.620;9.828;2022-12-18T14:04:10;35.73;;;14.00;;
54408;SDS011;40315;48.620;9.828;2022-12-18T14:06:38;38.40;;;14.50;;
54408;SDS011;40315;48.620;9.828;2022-12-18T14:09:09;35.37;;;14.27;;
54408;SDS011;40315;48.620;9.828;2022-12-18T14:11:38;35.27;;;14.67;;
54408;SDS011;40315;48.620;9.828;2022-12-18T14:14:05;34.77;;;13.43;;
54408;SDS011;40315;48.620;9.828;2022-12-18T14:16:34;37.20;;;15.20;;
54408;SDS011;40315;48.620;9.828;2022-12-18T14:19:02;43.93;;;16.27;;
54408;SDS011;40315;48.620;9.828;2022-12-18T14:21:31;31.17;;;13.57;;
54408;SDS011;40315;48.620;9.828;2022-12-18T14:24:04;32.87;;;13.87;;
54408;SDS011;40315;48.620;9.828;2022-12-18T14:26:38;34.10;;;14.93;;
54408;SDS011;40315;48.620;9.828;2022-12-18T14:29:18;32.50;;;13.50;;
54408;SDS011;40315;48.620;9.828;2022-12-18T14:34:42;33.17;;;13.40;;
54408;SDS011;40315;48.620;9.828;2022-12-18T14:37:11;32.27;;;14.20;;
54408;SDS011;40315;48.620;9.828;2022-12-18T14:39:38;33.27;;;13.67;;
54408;SDS011;40315;48.620;9.828;2022-12-18T14:42:09;35.30;;;14.37;;
54408;SDS011;40315;48.620;9.828;2022-12-18T14:44:37;34.43;;;13.83;;
54408;SDS011;40315;48.620;9.828;2022-12-18T14:47:04;35.47;;;11.60;;
54408;SDS011;40315;48.620;9.828;2022-12-18T14:49:39;36.20;;;12.63;;
54408;SDS011;40315;48.620;9.828;2022-12-18T14:52:21;36.33;;;13.63;;
54408;SDS011;40315;48.620;9.828;2022-12-18T14:54:53;29.13;;;11.63;;